createdAt,value
2018-11-29T00:01:42.928Z,38.13
2018-11-29T00:04:47.775Z,36.73
2018-11-29T00:07:52.705Z,39.87
2018-11-29T00:10:57.564Z,41.60
2018-11-29T00:14:02.634Z,39.10
2018-11-29T00:17:07.609Z,39.53
2018-11-29T00:20:21.770Z,40.37
2018-11-29T00:23:26.888Z,32.33
2018-11-29T00:26:31.740Z,37.30
2018-11-29T00:29:36.603Z,35.10
2018-11-29T00:32:41.429Z,34.45
2018-11-29T00:35:46.372Z,40.13
2018-11-29T00:38:51.214Z,37.60
2018-11-29T00:41:56.043Z,38.73
2018-11-29T00:45:00.892Z,40.50
2018-11-29T00:48:05.788Z,37.00
2018-11-29T00:51:10.645Z,39.90
2018-11-29T00:54:15.518Z,38.33
2018-11-29T00:57:20.470Z,37.43
2018-11-29T01:00:25.982Z,38.17
2018-11-29T01:03:30.823Z,35.70
2018-11-29T01:06:35.725Z,37.60
2018-11-29T01:09:40.723Z,34.65
2018-11-29T01:12:46.281Z,43.73
2018-11-29T01:15:51.252Z,41.33
2018-11-29T01:18:56.080Z,39.40
2018-11-29T01:22:00.974Z,39.73
2018-11-29T01:25:06.164Z,36.80
2018-11-29T01:28:11.114Z,42.00
2018-11-29T01:31:15.935Z,38.48
2018-11-29T01:34:20.804Z,37.07
2018-11-29T01:37:25.689Z,38.53
2018-11-29T01:40:30.528Z,38.30
2018-11-29T01:43:35.445Z,36.68
2018-11-29T01:46:40.324Z,41.83
2018-11-29T01:49:45.184Z,41.00
2018-11-29T01:52:50.084Z,36.45
2018-11-29T01:55:54.955Z,38.20
2018-11-29T01:58:59.867Z,37.43
2018-11-29T02:02:04.699Z,41.30
2018-11-29T02:05:13.018Z,36.27
2018-11-29T02:08:17.814Z,41.87
2018-11-29T02:11:22.643Z,39.20
2018-11-29T02:14:28.210Z,38.30
2018-11-29T02:17:33.108Z,38.73
2018-11-29T02:20:37.981Z,37.30
2018-11-29T02:23:42.850Z,38.55
2018-11-29T02:26:47.649Z,38.57
2018-11-29T02:29:52.504Z,37.20
2018-11-29T02:32:57.355Z,39.00
2018-11-29T02:36:02.228Z,37.23
2018-11-29T02:39:09.255Z,41.08
2018-11-29T02:42:14.159Z,36.55
2018-11-29T02:45:27.815Z,39.90
2018-11-29T02:48:32.766Z,41.50
2018-11-29T02:51:37.704Z,40.33
2018-11-29T02:54:42.583Z,38.53
2018-11-29T02:57:47.435Z,37.67
2018-11-29T03:00:52.294Z,45.60
2018-11-29T03:03:57.284Z,41.13
2018-11-29T03:07:02.136Z,44.63
2018-11-29T03:10:14.240Z,41.83
2018-11-29T03:13:19.100Z,42.27
2018-11-29T03:16:23.946Z,37.97
2018-11-29T03:19:28.798Z,39.27
2018-11-29T03:22:33.692Z,40.23
2018-11-29T03:25:38.643Z,39.13
2018-11-29T03:28:43.498Z,40.98
2018-11-29T03:31:49.095Z,42.07
2018-11-29T03:34:53.954Z,42.80
2018-11-29T03:37:58.764Z,38.43
2018-11-29T03:41:04.622Z,44.90
2018-11-29T03:44:09.427Z,41.80
2018-11-29T03:47:14.374Z,43.30
2018-11-29T03:50:19.574Z,35.20
2018-11-29T03:53:24.394Z,40.05
2018-11-29T03:56:29.260Z,41.30
2018-11-29T03:59:34.103Z,42.50
2018-11-29T04:02:39.002Z,41.73
2018-11-29T04:05:43.978Z,42.60
2018-11-29T04:08:48.800Z,38.50
2018-11-29T04:11:53.579Z,42.83
2018-11-29T04:14:58.393Z,41.90
2018-11-29T04:18:03.237Z,39.17
2018-11-29T04:21:08.122Z,41.80
2018-11-29T04:24:12.915Z,38.53
2018-11-29T04:27:17.790Z,40.83
2018-11-29T04:30:22.659Z,37.77
2018-11-29T04:33:27.635Z,36.63
2018-11-29T04:36:32.528Z,37.50
2018-11-29T04:39:37.365Z,39.35
2018-11-29T04:42:42.225Z,34.50
2018-11-29T04:46:32.878Z,42.77
2018-11-29T04:49:37.717Z,35.28
2018-11-29T04:52:42.539Z,36.85
2018-11-29T04:55:47.369Z,38.17
2018-11-29T04:58:52.198Z,41.43
2018-11-29T05:01:57.713Z,43.08
2018-11-29T05:05:02.543Z,39.60
2018-11-29T05:08:07.589Z,38.67
2018-11-29T05:11:12.598Z,38.25
2018-11-29T05:14:17.442Z,36.93
2018-11-29T05:17:22.298Z,39.10
2018-11-29T05:20:27.639Z,39.50
2018-11-29T05:23:32.483Z,38.77
2018-11-29T05:26:37.384Z,42.50
2018-11-29T05:29:42.299Z,43.43
2018-11-29T05:32:47.149Z,38.70
2018-11-29T05:35:51.994Z,45.10
2018-11-29T05:38:58.014Z,41.50
2018-11-29T05:42:02.967Z,36.73
2018-11-29T05:45:08.639Z,40.60
2018-11-29T05:48:13.448Z,39.97
2018-11-29T05:51:18.318Z,48.27
2018-11-29T05:54:23.135Z,37.13
2018-11-29T05:57:28.804Z,41.45
2018-11-29T06:00:33.832Z,45.63
2018-11-29T06:03:38.678Z,41.53
2018-11-29T06:06:43.544Z,42.77
2018-11-29T06:09:48.357Z,42.17
2018-11-29T06:12:53.305Z,42.83
2018-11-29T06:15:58.112Z,42.37
2018-11-29T06:19:02.969Z,40.03
2018-11-29T06:22:07.887Z,40.60
2018-11-29T06:25:12.947Z,45.15
2018-11-29T06:28:17.838Z,40.88
2018-11-29T06:31:23.055Z,44.53
2018-11-29T06:34:28.880Z,46.33
2018-11-29T06:37:33.799Z,43.33
2018-11-29T06:40:38.773Z,44.17
2018-11-29T06:43:43.728Z,43.27
2018-11-29T06:46:48.584Z,43.83
2018-11-29T06:49:53.424Z,43.30
2018-11-29T06:52:58.254Z,43.73
2018-11-29T06:56:03.094Z,43.87
2018-11-29T06:59:08.429Z,44.57
2018-11-29T07:02:13.299Z,46.37
2018-11-29T07:05:18.119Z,46.07
2018-11-29T07:08:23.184Z,47.27
2018-11-29T07:11:28.037Z,46.90
2018-11-29T07:14:32.867Z,48.07
2018-11-29T07:17:37.779Z,43.00
2018-11-29T07:20:42.616Z,38.83
2018-11-29T07:23:47.453Z,42.67
2018-11-29T07:26:52.298Z,44.90
2018-11-29T07:29:58.115Z,43.63
2018-11-29T07:33:02.972Z,43.30
2018-11-29T07:36:08.162Z,43.80
2018-11-29T07:39:13.021Z,45.45
2018-11-29T07:42:17.883Z,38.73
2018-11-29T07:45:22.950Z,47.97
2018-11-29T07:48:28.192Z,40.10
2018-11-29T07:51:33.077Z,37.95
2018-11-29T07:54:37.909Z,42.37
2018-11-29T07:57:42.837Z,40.77
2018-11-29T08:00:47.704Z,40.93
2018-11-29T08:03:52.571Z,44.43
2018-11-29T08:06:58.298Z,42.98
2018-11-29T08:10:03.231Z,43.75
2018-11-29T08:13:08.059Z,42.05
2018-11-29T08:16:12.851Z,38.20
2018-11-29T08:19:17.638Z,44.03
2018-11-29T08:22:22.549Z,40.10
2018-11-29T08:25:28.197Z,40.12
2018-11-29T08:28:33.037Z,42.23
2018-11-29T08:31:37.866Z,48.07
2018-11-29T08:34:42.671Z,39.38
2018-11-29T08:37:48.362Z,42.43
2018-11-29T08:40:53.385Z,46.23
2018-11-29T08:43:58.201Z,40.00
2018-11-29T08:47:03.116Z,45.63
2018-11-29T08:50:10.098Z,44.60
2018-11-29T08:53:15.038Z,50.63
2018-11-29T08:56:19.904Z,45.50
2018-11-29T08:59:24.742Z,45.73
2018-11-29T09:02:29.568Z,47.40
2018-11-29T09:05:34.438Z,48.77
2018-11-29T09:08:39.581Z,45.77
2018-11-29T09:11:45.390Z,38.33
2018-11-29T09:14:50.194Z,45.53
2018-11-29T09:17:55.087Z,44.00
2018-11-29T09:20:59.901Z,41.03
2018-11-29T09:24:04.817Z,46.67
2018-11-29T09:27:09.607Z,45.80
2018-11-29T09:30:15.669Z,42.73
2018-11-29T09:33:20.622Z,46.57
2018-11-29T09:36:25.459Z,46.77
2018-11-29T09:39:30.376Z,47.55
2018-11-29T09:42:35.223Z,37.03
2018-11-29T09:45:40.097Z,37.98
2018-11-29T09:48:44.918Z,41.63
2018-11-29T09:51:49.802Z,46.20
2018-11-29T09:54:54.633Z,40.30
2018-11-29T09:57:59.486Z,37.10
2018-11-29T10:01:04.381Z,40.60
2018-11-29T10:04:09.231Z,38.73
2018-11-29T10:07:14.038Z,44.43
2018-11-29T10:10:18.909Z,38.53
2018-11-29T10:13:23.801Z,37.97
2018-11-29T10:16:29.708Z,41.63
2018-11-29T10:19:34.523Z,42.63
2018-11-29T10:22:39.617Z,32.85
2018-11-29T10:25:44.448Z,38.43
2018-11-29T10:28:49.451Z,38.80
2018-11-29T10:31:54.761Z,35.97
2018-11-29T10:34:59.538Z,34.97
2018-11-29T10:38:04.401Z,34.20
2018-11-29T10:41:09.246Z,35.87
2018-11-29T10:44:14.246Z,35.03
2018-11-29T10:47:19.167Z,31.47
2018-11-29T10:50:24.132Z,35.07
2018-11-29T10:53:36.170Z,39.90
2018-11-29T10:56:35.561Z,29.47
2018-11-29T10:59:40.442Z,34.50
2018-11-29T11:03:02.732Z,30.70
2018-11-29T11:06:07.810Z,31.68
2018-11-29T11:09:12.901Z,36.45
2018-11-29T11:12:18.805Z,34.80
2018-11-29T11:15:23.892Z,36.57
2018-11-29T11:18:28.822Z,39.95
2018-11-29T11:21:33.664Z,35.67
2018-11-29T11:24:38.478Z,38.63
2018-11-29T11:27:43.350Z,32.53
2018-11-29T11:30:48.183Z,34.80
2018-11-29T11:33:53.026Z,37.00
2018-11-29T11:36:58.821Z,37.77
2018-11-29T11:40:03.735Z,36.70
2018-11-29T11:43:09.718Z,33.20
2018-11-29T11:46:14.727Z,31.07
2018-11-29T11:49:19.567Z,32.07
2018-11-29T11:52:26.802Z,34.23
2018-11-29T11:55:30.510Z,40.03
2018-11-29T11:58:35.422Z,31.70
2018-11-29T12:01:40.276Z,33.30
2018-11-29T12:04:48.607Z,31.80
2018-11-29T12:07:50.982Z,32.80
2018-11-29T12:10:55.846Z,35.78
2018-11-29T12:14:00.724Z,33.80
2018-11-29T12:17:05.563Z,36.33
2018-11-29T12:20:20.119Z,31.83
2018-11-29T12:23:25.093Z,32.05
2018-11-29T12:26:30.058Z,30.70
2018-11-29T12:29:34.989Z,29.80
2018-11-29T12:32:39.842Z,30.08
2018-11-29T12:35:44.747Z,30.00
2018-11-29T12:38:49.668Z,28.90
2018-11-29T12:41:54.474Z,31.53
2018-11-29T12:44:59.407Z,27.87
2018-11-29T12:48:04.318Z,29.73
2018-11-29T12:51:09.426Z,30.77
2018-11-29T12:54:14.409Z,31.83
2018-11-29T12:57:19.306Z,26.77
2018-11-29T13:00:25.521Z,31.57
2018-11-29T13:03:30.526Z,29.80
2018-11-29T13:06:35.573Z,36.85
2018-11-29T13:09:40.421Z,29.27
2018-11-29T13:12:45.377Z,29.10
2018-11-29T13:15:50.236Z,30.67
2018-11-29T13:18:55.061Z,33.20
2018-11-29T13:21:59.893Z,32.70
2018-11-29T13:25:04.973Z,26.60
2018-11-29T13:28:10.132Z,28.60
2018-11-29T13:31:15.020Z,29.50
2018-11-29T13:34:20.060Z,29.63
2018-11-29T13:37:25.080Z,29.43
2018-11-29T13:40:30.136Z,28.23
2018-11-29T13:43:34.980Z,31.95
2018-11-29T13:46:39.833Z,28.77
2018-11-29T13:49:44.652Z,31.50
2018-11-29T13:52:49.586Z,27.97
2018-11-29T13:55:54.530Z,26.83
2018-11-29T13:58:59.589Z,29.67
2018-11-29T14:02:04.462Z,26.43
2018-11-29T14:05:10.515Z,33.80
2018-11-29T14:08:15.385Z,29.80
2018-11-29T14:11:20.412Z,28.63
2018-11-29T14:14:25.316Z,27.50
2018-11-29T14:17:30.352Z,29.37
2018-11-29T14:20:35.541Z,32.00
2018-11-29T14:23:41.330Z,28.20
2018-11-29T14:26:46.209Z,25.45
2018-11-29T14:29:51.081Z,30.83
2018-11-29T14:32:57.628Z,27.70
2018-11-29T14:36:02.500Z,23.40
2018-11-29T14:39:08.630Z,22.00
2018-11-29T14:42:13.724Z,24.83
2018-11-29T14:45:22.541Z,20.57
2018-11-29T14:48:27.456Z,26.80
2018-11-29T14:51:32.427Z,22.53
2018-11-29T14:54:37.406Z,24.50
2018-11-29T14:57:42.284Z,25.70
2018-11-29T15:00:47.279Z,26.02
2018-11-29T15:03:53.006Z,23.37
2018-11-29T15:06:57.880Z,24.20
2018-11-29T15:10:02.702Z,24.70
2018-11-29T15:13:08.820Z,24.23
2018-11-29T15:16:13.717Z,24.37
2018-11-29T15:19:18.540Z,24.07
2018-11-29T15:22:23.494Z,22.77
2018-11-29T15:25:28.353Z,20.70
2018-11-29T15:28:33.169Z,24.03
2018-11-29T15:31:38.164Z,22.55
2018-11-29T15:34:42.995Z,24.47
2018-11-29T15:37:47.871Z,26.97
2018-11-29T15:40:52.802Z,27.87
2018-11-29T15:43:57.695Z,26.20
2018-11-29T15:47:02.550Z,23.63
2018-11-29T15:50:10.202Z,22.35
2018-11-29T15:53:15.172Z,27.80
2018-11-29T15:56:20.052Z,22.53
2018-11-29T15:59:24.997Z,17.20
2018-11-29T16:02:30.672Z,36.77
2018-11-29T16:05:35.627Z,28.60
2018-11-29T16:08:40.571Z,23.83
2018-11-29T16:11:45.528Z,20.80
2018-11-29T16:14:50.481Z,20.30
2018-11-29T16:17:55.469Z,23.30
2018-11-29T16:21:00.398Z,21.80
2018-11-29T16:24:05.371Z,18.60
2018-11-29T16:27:10.304Z,19.30
2018-11-29T16:30:20.805Z,15.97
2018-11-29T16:33:36.213Z,18.42
2018-11-29T16:36:41.075Z,17.23
2018-11-29T16:39:45.949Z,22.97
2018-11-29T16:42:50.942Z,18.73
2018-11-29T16:45:55.828Z,20.53
2018-11-29T16:49:02.888Z,24.70
2018-11-29T16:52:06.469Z,21.67
2018-11-29T16:55:12.198Z,22.50
2018-11-29T16:58:21.877Z,24.00
2018-11-29T17:01:26.674Z,21.73
2018-11-29T17:04:31.683Z,24.83
2018-11-29T17:07:36.519Z,24.23
2018-11-29T17:10:41.346Z,24.50
2018-11-29T17:13:46.211Z,26.57
2018-11-29T17:16:51.036Z,25.67
2018-11-29T17:19:55.919Z,34.90
2018-11-29T17:23:00.954Z,21.45
2018-11-29T17:26:05.793Z,25.37
2018-11-29T17:29:10.770Z,22.80
2018-11-29T17:32:15.741Z,21.60
2018-11-29T17:35:20.781Z,23.27
2018-11-29T17:38:25.648Z,24.30
2018-11-29T17:41:30.916Z,22.52
2018-11-29T17:44:35.740Z,24.70
2018-11-29T17:47:40.625Z,23.55
2018-11-29T17:50:46.073Z,21.75
2018-11-29T17:53:50.874Z,23.07
2018-11-29T17:56:55.743Z,18.10
2018-11-29T18:00:00.699Z,18.43
2018-11-29T18:03:06.184Z,20.80
2018-11-29T18:06:11.090Z,18.77
2018-11-29T18:09:16.028Z,18.83
2018-11-29T18:12:20.914Z,18.50
2018-11-29T18:15:30.820Z,16.52
2018-11-29T18:18:35.727Z,16.55
2018-11-29T18:21:41.464Z,18.85
2018-11-29T18:24:46.323Z,19.75
2018-11-29T18:27:52.236Z,19.97
2018-11-29T18:30:57.087Z,18.40
2018-11-29T18:34:01.994Z,23.93
2018-11-29T18:37:07.135Z,23.87
2018-11-29T18:40:21.710Z,20.67
2018-11-29T18:43:26.660Z,20.80
2018-11-29T18:46:31.538Z,16.20
2018-11-29T18:49:36.421Z,22.65
2018-11-29T18:52:41.298Z,21.73
2018-11-29T18:55:46.258Z,21.27
2018-11-29T18:58:51.142Z,19.02
2018-11-29T19:01:56.178Z,21.37
2018-11-29T19:05:01.158Z,21.10
2018-11-29T19:08:06.748Z,23.73
2018-11-29T19:11:11.555Z,21.17
2018-11-29T19:14:16.807Z,18.90
2018-11-29T19:17:25.112Z,20.40
2018-11-29T19:20:27.733Z,20.67
2018-11-29T19:23:32.625Z,16.60
2018-11-29T19:26:37.653Z,21.87
2018-11-29T19:29:42.499Z,19.35
2018-11-29T19:32:51.773Z,17.20
2018-11-29T19:35:57.153Z,18.57
2018-11-29T19:39:01.995Z,14.00
2018-11-29T19:42:06.871Z,16.03
2018-11-29T19:45:15.856Z,14.17
2018-11-29T19:48:20.817Z,14.80
2018-11-29T19:51:26.084Z,14.40
2018-11-29T19:54:31.304Z,14.60
2018-11-29T19:57:36.217Z,12.25
2018-11-29T20:00:41.632Z,12.13
2018-11-29T20:03:46.495Z,15.37
2018-11-29T20:06:51.594Z,15.90
2018-11-29T20:09:56.464Z,13.37
2018-11-29T20:13:07.645Z,13.30
2018-11-29T20:16:12.538Z,16.82
2018-11-29T20:19:17.434Z,13.33
2018-11-29T20:22:22.419Z,11.87
2018-11-29T20:25:27.837Z,13.83
2018-11-29T20:28:32.774Z,12.20
2018-11-29T20:31:37.597Z,12.00
2018-11-29T20:34:42.462Z,13.28
2018-11-29T20:37:47.687Z,12.55
2018-11-29T20:40:52.563Z,14.33
2018-11-29T20:43:57.412Z,17.17
2018-11-29T20:47:02.228Z,16.30
2018-11-29T20:50:07.857Z,13.27
2018-11-29T20:53:14.407Z,12.40
2018-11-29T20:56:19.532Z,13.80
2018-11-29T20:59:24.397Z,12.73
2018-11-29T21:02:29.251Z,12.70
2018-11-29T21:05:34.201Z,13.70
2018-11-29T21:08:39.153Z,12.82
2018-11-29T21:11:47.780Z,14.50
2018-11-29T21:14:49.924Z,15.10
2018-11-29T21:17:54.761Z,15.90
2018-11-29T21:20:59.666Z,15.47
2018-11-29T21:24:04.563Z,14.87
2018-11-29T21:27:09.543Z,15.40
2018-11-29T21:30:18.058Z,16.63
2018-11-29T21:33:22.934Z,14.30
2018-11-29T21:36:27.918Z,15.10
2018-11-29T21:39:32.851Z,16.37
2018-11-29T21:42:37.738Z,16.37
2018-11-29T21:45:42.614Z,17.20
2018-11-29T21:48:47.477Z,16.40
2018-11-29T21:51:52.308Z,15.93
2018-11-29T21:54:57.173Z,16.80
2018-11-29T21:58:02.088Z,15.57
2018-11-29T22:01:07.103Z,15.93
2018-11-29T22:04:12.028Z,13.80
2018-11-29T22:07:16.908Z,16.13
2018-11-29T22:10:21.718Z,15.00
2018-11-29T22:13:26.580Z,16.43
2018-11-29T22:16:31.872Z,14.68
2018-11-29T22:19:36.736Z,14.05
2018-11-29T22:22:41.683Z,16.37
2018-11-29T22:25:46.608Z,13.60
2018-11-29T22:28:51.440Z,13.70
2018-11-29T22:31:56.308Z,15.87
2018-11-29T22:35:01.208Z,14.70
2018-11-29T22:38:06.663Z,14.53
2018-11-29T22:41:11.626Z,14.37
2018-11-29T22:44:16.495Z,13.67
2018-11-29T22:47:21.535Z,15.67
2018-11-29T22:50:26.422Z,14.97
2018-11-29T22:53:31.790Z,17.07
2018-11-29T22:56:36.642Z,16.40
2018-11-29T22:59:41.528Z,13.43
2018-11-29T23:02:46.680Z,14.60
2018-11-29T23:05:51.752Z,14.13
2018-11-29T23:08:56.661Z,14.50
2018-11-29T23:12:01.490Z,14.87
2018-11-29T23:15:07.663Z,15.80
2018-11-29T23:18:12.596Z,14.30
2018-11-29T23:21:17.446Z,10.77
2018-11-29T23:24:22.345Z,13.03
2018-11-29T23:27:28.955Z,15.37
2018-11-29T23:30:33.864Z,24.17
2018-11-29T23:33:38.681Z,16.40
2018-11-29T23:36:43.686Z,13.50
2018-11-29T23:39:48.638Z,15.20
2018-11-29T23:42:53.465Z,17.30
2018-11-29T23:45:58.310Z,16.00
2018-11-29T23:49:03.182Z,13.27
2018-11-29T23:52:08.243Z,17.83
2018-11-29T23:55:14.649Z,15.40
2018-11-29T23:58:19.606Z,13.97
